createdAt,value
2018-06-21T00:01:23.930Z,81.87
2018-06-21T00:03:52.149Z,81.66
2018-06-21T00:06:20.486Z,81.28
2018-06-21T00:08:48.945Z,81.75
2018-06-21T00:11:17.207Z,82.04
2018-06-21T00:13:45.497Z,82.26
2018-06-21T00:16:13.672Z,82.77
2018-06-21T00:18:41.901Z,81.79
2018-06-21T00:21:10.192Z,81.86
2018-06-21T00:23:38.656Z,82.10
2018-06-21T00:26:07.035Z,81.22
2018-06-21T00:28:35.342Z,81.49
2018-06-21T00:31:03.608Z,81.95
2018-06-21T00:33:31.956Z,82.24
2018-06-21T00:36:00.314Z,82.11
2018-06-21T00:38:28.566Z,82.89
2018-06-21T00:40:56.853Z,82.57
2018-06-21T00:43:25.275Z,83.47
2018-06-21T00:45:53.566Z,83.58
2018-06-21T00:48:21.864Z,83.87
2018-06-21T00:50:50.836Z,84.04
2018-06-21T00:53:19.095Z,84.02
2018-06-21T00:55:58.626Z,85.03
2018-06-21T00:58:26.933Z,85.14
2018-06-21T01:00:55.284Z,85.73
2018-06-21T01:03:23.636Z,86.00
2018-06-21T01:05:51.985Z,86.10
2018-06-21T01:08:20.323Z,86.54
2018-06-21T01:10:48.697Z,86.66
2018-06-21T01:13:17.016Z,86.68
2018-06-21T01:15:45.383Z,86.98
2018-06-21T01:18:13.709Z,86.87
2018-06-21T01:20:42.047Z,86.52
2018-06-21T01:23:11.190Z,85.71
2018-06-21T01:25:39.563Z,86.48
2018-06-21T01:28:08.182Z,86.46
2018-06-21T01:30:37.021Z,86.23
2018-06-21T01:33:05.433Z,86.27
2018-06-21T01:35:33.766Z,86.61
2018-06-21T01:38:02.744Z,86.42
2018-06-21T01:40:31.106Z,86.52
2018-06-21T01:42:59.454Z,86.71
2018-06-21T01:45:29.538Z,87.16
2018-06-21T01:48:00.687Z,86.76
2018-06-21T01:50:29.018Z,86.60
2018-06-21T01:52:57.351Z,86.15
2018-06-21T01:55:26.691Z,86.14
2018-06-21T01:57:55.777Z,85.48
2018-06-21T02:00:24.577Z,86.42
2018-06-21T02:02:53.109Z,86.60
2018-06-21T02:05:22.987Z,86.46
2018-06-21T02:07:52.551Z,87.27
2018-06-21T02:10:21.068Z,87.44
2018-06-21T02:12:49.716Z,86.74
2018-06-21T02:15:18.656Z,87.12
2018-06-21T02:17:46.914Z,87.35
2018-06-21T02:20:15.167Z,87.44
2018-06-21T02:22:45.136Z,87.23
2018-06-21T02:25:13.627Z,87.14
2018-06-21T02:27:42.899Z,87.28
2018-06-21T22:02:36.785Z,47.98
2018-06-21T22:05:04.956Z,48.93
2018-06-21T22:07:33.101Z,49.29
2018-06-21T22:10:01.284Z,49.03
2018-06-21T22:12:30.011Z,48.92
2018-06-21T22:14:58.851Z,49.11
2018-06-21T22:17:28.713Z,51.01
2018-06-21T22:19:57.887Z,50.03
2018-06-21T22:22:26.472Z,51.82
2018-06-21T22:24:55.207Z,50.33
2018-06-21T22:27:23.280Z,51.07
2018-06-21T22:29:51.383Z,51.92
2018-06-21T22:32:20.000Z,49.94
2018-06-21T22:34:48.159Z,51.26
2018-06-21T22:37:16.312Z,52.53
2018-06-21T22:39:44.464Z,51.75
2018-06-21T22:42:12.774Z,51.78
2018-06-21T22:44:42.039Z,51.51
2018-06-21T22:47:10.107Z,52.74
2018-06-21T22:49:38.262Z,54.50
2018-06-21T22:52:06.470Z,52.85
2018-06-21T22:54:34.640Z,53.71
2018-06-21T22:57:02.720Z,53.37
2018-06-21T22:59:30.823Z,52.18
2018-06-21T23:01:59.635Z,53.03
2018-06-21T23:04:27.719Z,53.22
2018-06-21T23:06:55.824Z,55.04
2018-06-21T23:09:23.899Z,53.85
2018-06-21T23:11:52.600Z,53.77
2018-06-21T23:14:20.876Z,53.82
2018-06-21T23:16:48.968Z,55.96
2018-06-21T23:19:27.459Z,54.26
2018-06-21T23:21:55.747Z,55.53
2018-06-21T23:24:24.572Z,54.53
2018-06-21T23:26:53.353Z,55.34
2018-06-21T23:29:21.365Z,55.12
2018-06-21T23:31:49.948Z,55.86
2018-06-21T23:34:18.979Z,56.08
2018-06-21T23:36:47.889Z,56.34
2018-06-21T23:39:16.105Z,58.59
2018-06-21T23:41:44.485Z,57.07
2018-06-21T23:44:13.797Z,59.88
2018-06-21T23:46:42.692Z,58.14
2018-06-21T23:49:11.404Z,58.28
2018-06-21T23:51:40.423Z,58.75
2018-06-21T23:54:10.552Z,58.77
2018-06-21T23:56:39.053Z,58.39
2018-06-21T23:59:07.685Z,58.19
